Time;durP1;ratioP1;P1;durP2;ratioP2;P2;SDS_P1;SDS_P2;PMS_P1;PMS_P2;Temp;Humidity;BMP_temperature;BMP_pressure;BME280_temperature;BME280_humidity;BME280_pressure;Samples;Min_cycle;Max_cycle;Signal;HPM_P1;HPM_P2
2022/08/13 00:01:59;;;;;;;1.97;1.50;;;20.90;21.40;;;;;;4975378;28;20239;-65
2022/08/13 00:04:27;;;;;;;1.67;1.50;;;20.80;21.10;;;;;;4975626;28;20316;-66
2022/08/13 00:07:07;;;;;;;1.90;1.70;;;20.80;20.50;;;;;;4975118;28;20251;-65
2022/08/13 00:09:38;;;;;;;3.23;1.77;;;20.80;20.40;;;;;;4975766;28;20216;-65
2022/08/13 00:14:52;;;;;;;3.30;1.60;;;20.60;20.00;;;;;;4975466;28;20240;-65
2022/08/13 00:17:19;;;;;;;2.33;1.90;;;20.50;19.80;;;;;;4974641;28;20208;-66
2022/08/13 00:19:50;;;;;;;2.93;1.67;;;20.50;19.80;;;;;;4975441;28;20212;-66
2022/08/13 00:22:19;;;;;;;3.30;2.00;;;20.40;18.90;;;;;;4975687;28;20601;-64
2022/08/13 00:24:47;;;;;;;4.67;1.90;;;20.30;18.70;;;;;;4975468;28;20215;-65
2022/08/13 00:27:14;;;;;;;2.03;1.77;;;20.20;19.30;;;;;;4974882;28;20592;-65
2022/08/13 00:29:41;;;;;;;3.27;1.77;;;20.20;18.50;;;;;;4975130;28;20659;-65
2022/08/13 00:32:08;;;;;;;3.13;1.90;;;20.10;31.20;;;;;;4974607;28;20664;-65
2022/08/13 00:34:35;;;;;;;2.30;1.50;;;20.10;19.20;;;;;;4975067;28;20224;-65
2022/08/13 00:37:01;;;;;;;5.13;2.40;;;20.00;19.50;;;;;;4974715;28;20560;-65
2022/08/13 00:39:28;;;;;;;3.37;1.90;;;20.00;19.10;;;;;;4974698;28;20255;-65
2022/08/13 00:41:57;;;;;;;5.83;1.93;;;19.90;19.50;;;;;;4974948;28;20357;-65
2022/08/13 00:44:25;;;;;;;3.13;1.73;;;19.90;20.20;;;;;;4974462;28;20231;-65
2022/08/13 00:48:41;;;;;;;4.93;2.30;;;19.80;20.00;;;;;;4974571;28;20204;-65
2022/08/13 00:49:38;;;;;;;6.13;2.00;;;19.70;19.20;;;;;;4974541;28;20212;-65
2022/08/13 00:52:07;;;;;;;3.17;1.70;;;19.70;20.10;;;;;;4974731;28;20239;-65
2022/08/13 00:54:34;;;;;;;2.47;2.00;;;19.70;20.00;;;;;;4974540;28;20598;-65
2022/08/13 00:57:07;;;;;;;5.53;2.77;;;19.60;20.00;;;;;;4974322;28;20267;-65
2022/08/13 00:59:34;;;;;;;3.60;2.10;;;19.60;20.00;;;;;;4974455;28;20235;-65
2022/08/13 01:02:01;;;;;;;3.27;2.20;;;19.50;20.30;;;;;;4974664;28;20279;-66
2022/08/13 01:04:29;;;;;;;3.53;2.00;;;19.40;20.50;;;;;;4974455;28;20632;-65
2022/08/13 01:06:57;;;;;;;1.93;1.80;;;19.40;21.30;;;;;;4974047;28;20212;-65
2022/08/13 01:09:28;;;;;;;5.43;2.33;;;19.40;20.80;;;;;;4974242;28;20275;-65
2022/08/13 01:11:55;;;;;;;3.93;1.97;;;19.30;21.10;;;;;;4974432;28;20710;-65
2022/08/13 01:14:24;;;;;;;4.37;2.17;;;19.20;21.80;;;;;;4974281;28;20286;-65
2022/08/13 01:16:52;;;;;;;3.50;2.27;;;19.20;22.50;;;;;;4973886;28;20204;-65
2022/08/13 01:19:19;;;;;;;4.00;2.10;;;19.20;23.00;;;;;;4974240;28;20214;-65
2022/08/13 01:21:52;;;;;;;2.67;2.07;;;19.10;22.20;;;;;;4973611;28;20225;-65
2022/08/13 01:24:20;;;;;;;8.70;2.90;;;19.10;22.70;;;;;;4974022;28;20193;-65
2022/08/13 01:26:49;;;;;;;7.73;3.30;;;19.00;22.00;;;;;;4973999;28;20211;-65
2022/08/13 01:29:18;;;;;;;4.20;2.07;;;19.00;22.10;;;;;;4974026;28;20264;-66
2022/08/13 01:31:45;;;;;;;3.30;2.07;;;18.90;21.70;;;;;;4973920;28;20279;-65
2022/08/13 01:34:13;;;;;;;3.60;2.43;;;18.90;21.50;;;;;;4974275;28;20396;-65
2022/08/13 01:36:41;;;;;;;2.33;2.00;;;18.90;22.10;;;;;;4973498;28;20305;-65
2022/08/13 01:39:10;;;;;;;6.60;2.60;;;18.90;22.10;;;;;;4973629;28;20263;-65
2022/08/13 01:41:38;;;;;;;4.17;2.37;;;18.90;22.50;;;;;;4973861;28;20258;-66
2022/08/13 01:44:06;;;;;;;2.73;1.93;;;18.80;22.70;;;;;;4973843;28;20642;-65
2022/08/13 01:50:28;;;;;;;2.37;2.00;;;18.80;22.40;;;;;;4973387;28;20212;-65
2022/08/13 01:52:08;;;;;;;3.97;1.87;;;18.70;22.20;;;;;;4973388;28;20231;-65
2022/08/13 01:54:38;;;;;;;2.70;1.73;;;18.60;22.00;;;;;;4973543;28;20251;-65
2022/08/13 01:57:07;;;;;;;2.30;1.90;;;18.60;22.50;;;;;;4973550;28;20204;-65
2022/08/13 01:59:37;;;;;;;2.67;1.60;;;18.50;22.60;;;;;;4973453;28;20216;-65
2022/08/13 02:02:05;;;;;;;3.27;1.67;;;18.50;22.80;;;;;;4973790;28;20298;-65
2022/08/13 02:04:33;;;;;;;2.10;1.80;;;18.50;23.80;;;;;;4973116;28;20218;-65
2022/08/13 02:07:01;;;;;;;3.60;1.90;;;18.40;23.50;;;;;;4973017;28;20683;-65
2022/08/13 02:09:28;;;;;;;2.50;1.77;;;18.40;23.80;;;;;;4973383;28;20211;-65
2022/08/13 02:11:56;;;;;;;2.30;1.83;;;18.40;24.60;;;;;;4972730;28;20602;-65
2022/08/13 02:14:23;;;;;;;1.97;1.77;;;18.30;25.00;;;;;;4973328;28;20288;-65
2022/08/13 02:16:50;;;;;;;2.43;1.87;;;18.30;25.30;;;;;;4972992;28;20306;-65
2022/08/13 02:19:17;;;;;;;4.77;1.90;;;18.20;25.50;;;;;;4973262;28;20209;-65
2022/08/13 02:21:44;;;;;;;3.00;1.60;;;18.20;25.60;;;;;;4973333;28;20650;-65
2022/08/13 02:24:13;;;;;;;4.87;1.77;;;18.20;26.00;;;;;;4973029;28;20208;-65
2022/08/13 02:26:42;;;;;;;3.27;1.83;;;18.10;26.70;;;;;;4972900;28;20266;-65
2022/08/13 02:29:12;;;;;;;3.00;1.80;;;18.00;27.60;;;;;;4973030;28;20643;-65
2022/08/13 02:31:42;;;;;;;5.23;1.73;;;18.00;28.80;;;;;;4973328;28;20339;-65
2022/08/13 02:34:10;;;;;;;5.07;1.97;;;18.00;29.00;;;;;;4972942;28;20233;-65
2022/08/13 02:36:40;;;;;;;3.77;2.20;;;17.90;29.10;;;;;;4972862;28;20219;-65
2022/08/13 02:39:08;;;;;;;1.60;1.50;;;17.80;29.10;;;;;;4972990;28;20207;-65
2022/08/13 02:41:42;;;;;;;2.67;1.87;;;17.80;29.20;;;;;;4972916;28;20299;-65
2022/08/13 02:44:12;;;;;;;5.10;1.80;;;17.70;31.00;;;;;;4973086;28;20200;-65
2022/08/13 02:46:39;;;;;;;2.43;2.03;;;17.70;32.70;;;;;;4973012;28;20208;-65
2022/08/13 02:49:06;;;;;;;2.43;1.90;;;17.70;33.50;;;;;;4973099;28;20267;-65
2022/08/13 02:51:33;;;;;;;5.50;2.07;;;17.60;48.90;;;;;;4972534;28;20234;-65
2022/08/13 02:54:01;;;;;;;3.50;2.00;;;17.50;35.90;;;;;;4973021;28;20648;-65
2022/08/13 02:56:28;;;;;;;3.23;2.03;;;17.40;38.40;;;;;;4972791;28;20268;-65
2022/08/13 02:58:56;;;;;;;5.80;1.93;;;17.40;40.10;;;;;;4972850;28;20760;-65
2022/08/13 03:01:25;;;;;;;2.10;1.87;;;17.40;39.10;;;;;;4972808;28;20813;-65
2022/08/13 03:03:52;;;;;;;2.33;2.10;;;17.40;40.90;;;;;;4972920;28;20215;-65
2022/08/13 03:06:19;;;;;;;4.67;2.20;;;17.30;40.20;;;;;;4972535;28;20220;-65
2022/08/13 03:08:48;;;;;;;3.53;1.73;;;17.30;39.70;;;;;;4972778;28;20688;-65
2022/08/13 03:11:15;;;;;;;2.53;1.90;;;17.20;41.10;;;;;;4972812;28;20264;-65
2022/08/13 03:13:45;;;;;;;4.50;1.97;;;17.20;42.90;;;;;;4972783;28;20275;-65
2022/08/13 03:16:15;;;;;;;2.50;2.30;;;17.20;44.00;;;;;;4972331;28;20223;-65
2022/08/13 03:18:43;;;;;;;3.27;2.57;;;17.20;44.30;;;;;;4972565;28;20267;-65
2022/08/13 03:21:10;;;;;;;3.20;2.27;;;17.20;48.20;;;;;;4972566;28;20746;-65
2022/08/13 03:23:37;;;;;;;2.50;2.00;;;17.10;47.70;;;;;;4974932;28;20214;-65
2022/08/13 03:26:03;;;;;;;3.63;2.20;;;17.10;47.40;;;;;;4976226;28;20205;-65
2022/08/13 03:28:30;;;;;;;4.10;2.10;;;17.10;47.80;;;;;;4975979;28;20726;-65
2022/08/13 03:30:57;;;;;;;7.83;2.20;;;17.10;47.00;;;;;;4975911;28;20290;-65
2022/08/13 03:33:24;;;;;;;2.93;2.10;;;17.10;47.00;;;;;;4975926;28;20699;-65
2022/08/13 03:35:52;;;;;;;2.70;2.07;;;17.10;46.90;;;;;;4976117;28;20238;-65
2022/08/13 03:38:19;;;;;;;3.63;2.07;;;17.00;47.80;;;;;;4976073;28;20679;-65
2022/08/13 03:41:11;;;;;;;3.33;2.10;;;17.00;47.00;;;;;;4976126;28;20280;-65
2022/08/13 03:43:42;;;;;;;2.83;2.17;;;17.00;47.70;;;;;;4976004;28;20561;-65
2022/08/13 03:46:09;;;;;;;3.23;2.13;;;17.00;49.90;;;;;;4975898;28;20263;-65
2022/08/13 03:48:36;;;;;;;2.60;1.90;;;17.00;50.80;;;;;;4975980;28;20278;-65
2022/08/13 03:51:05;;;;;;;5.57;2.30;;;17.00;50.20;;;;;;4975648;28;20672;-65
2022/08/13 03:53:32;;;;;;;2.03;1.83;;;16.90;51.30;;;;;;4975812;28;20699;-65
2022/08/13 03:55:59;;;;;;;2.33;1.80;;;16.90;52.90;;;;;;4975393;28;20232;-65
2022/08/13 03:58:28;;;;;;;3.60;2.20;;;16.90;52.30;;;;;;4975889;28;20227;-65
2022/08/13 04:00:55;;;;;;;2.40;2.10;;;16.80;52.50;;;;;;4975818;28;20236;-65
2022/08/13 04:03:23;;;;;;;2.00;1.83;;;16.80;51.70;;;;;;4975512;28;20950;-65
2022/08/13 04:05:52;;;;;;;3.27;2.40;;;16.80;54.90;;;;;;4975589;28;20656;-65
2022/08/13 04:08:21;;;;;;;4.63;2.20;;;16.90;54.80;;;;;;4975632;28;20228;-64
2022/08/13 04:10:48;;;;;;;2.07;1.87;;;17.00;55.50;;;;;;4975410;28;20212;-65
2022/08/13 04:13:16;;;;;;;2.30;1.80;;;17.10;57.50;;;;;;4975517;28;20235;-65
2022/08/13 04:15:44;;;;;;;3.60;1.97;;;17.20;57.00;;;;;;4975226;28;20232;-64
2022/08/13 04:18:12;;;;;;;3.00;2.10;;;17.20;57.80;;;;;;4975003;28;20216;-63
2022/08/13 04:20:41;;;;;;;2.40;1.90;;;17.20;58.50;;;;;;4975241;28;20299;-64
2022/08/13 04:23:14;;;;;;;3.17;2.47;;;17.20;58.30;;;;;;4975256;28;20369;-65
2022/08/13 04:25:43;;;;;;;2.20;1.90;;;17.10;57.90;;;;;;4975095;28;20263;-64
2022/08/13 04:28:11;;;;;;;2.73;2.03;;;17.10;58.70;;;;;;4974820;28;20760;-65
2022/08/13 04:30:40;;;;;;;2.57;2.20;;;17.00;57.20;;;;;;4975150;28;20627;-65
2022/08/13 04:33:09;;;;;;;4.97;2.07;;;17.00;58.60;;;;;;4974942;28;20279;-64
2022/08/13 04:35:36;;;;;;;5.63;2.00;;;17.00;59.10;;;;;;4974480;28;20646;-64
2022/08/13 04:38:05;;;;;;;3.70;2.33;;;17.00;60.20;;;;;;4974758;28;20219;-65
2022/08/13 04:40:32;;;;;;;3.33;2.50;;;17.00;63.10;;;;;;4975136;28;20590;-65
2022/08/13 04:43:00;;;;;;;2.53;2.23;;;17.00;65.70;;;;;;4975035;28;20247;-64
2022/08/13 04:45:29;;;;;;;2.57;2.00;;;17.00;63.40;;;;;;4975121;28;20604;-66
2022/08/13 04:47:58;;;;;;;2.90;2.10;;;17.00;64.00;;;;;;4974527;28;20583;-64
2022/08/13 04:50:26;;;;;;;10.33;2.40;;;17.00;65.10;;;;;;4974662;28;20759;-65
2022/08/13 04:52:53;;;;;;;4.10;2.20;;;17.10;65.90;;;;;;4974645;28;20286;-65
2022/08/13 04:55:19;;;;;;;3.80;2.33;;;17.20;66.40;;;;;;4974712;28;20251;-64
2022/08/13 04:57:47;;;;;;;5.43;2.40;;;17.20;68.40;;;;;;4974174;28;20734;-65
2022/08/13 05:00:16;;;;;;;3.07;2.60;;;17.30;69.30;;;;;;4974603;28;20237;-64
2022/08/13 05:02:43;;;;;;;2.67;2.40;;;17.30;70.60;;;;;;4974321;28;20228;-64
2022/08/13 05:05:11;;;;;;;3.43;2.13;;;17.20;74.90;;;;;;4974570;28;20215;-65
2022/08/13 05:07:38;;;;;;;2.53;2.20;;;17.20;81.50;;;;;;4974245;28;20204;-64
2022/08/13 05:10:05;;;;;;;3.60;2.40;;;17.20;80.60;;;;;;4974251;28;20675;-65
2022/08/13 05:12:34;;;;;;;4.00;2.27;;;17.20;84.00;;;;;;4974308;28;20719;-65
2022/08/13 05:15:01;;;;;;;2.83;2.17;;;17.20;90.20;;;;;;4974219;28;20257;-65
2022/08/13 05:17:30;;;;;;;3.53;2.50;;;17.20;91.60;;;;;;4973824;28;20288;-63
2022/08/13 05:19:57;;;;;;;4.43;2.43;;;17.20;92.20;;;;;;4974399;28;20208;-65
2022/08/13 05:22:23;;;;;;;3.90;2.87;;;17.30;93.80;;;;;;4974191;28;20228;-65
2022/08/13 05:24:50;;;;;;;3.27;2.67;;;17.30;93.80;;;;;;4974024;28;20232;-65
2022/08/13 05:27:17;;;;;;;4.27;2.80;;;17.30;92.40;;;;;;4973836;28;20215;-65
2022/08/13 05:29:44;;;;;;;4.50;2.77;;;17.50;92.00;;;;;;4973891;28;20909;-65
2022/08/13 05:32:11;;;;;;;8.50;3.03;;;17.50;91.30;;;;;;4973713;28;20251;-65
2022/08/13 05:34:39;;;;;;;6.23;3.17;;;17.70;91.60;;;;;;4973901;28;20212;-65
2022/08/13 05:37:07;;;;;;;6.90;3.23;;;17.90;91.30;;;;;;4973701;28;20259;-65
2022/08/13 05:39:35;;;;;;;5.80;2.93;;;18.00;91.00;;;;;;4974119;28;20295;-66
2022/08/13 05:42:02;;;;;;;3.67;3.10;;;18.00;90.00;;;;;;4973799;28;20252;-65
2022/08/13 05:44:28;;;;;;;5.77;3.17;;;18.10;90.60;;;;;;4973997;28;20216;-68
2022/08/13 05:46:55;;;;;;;3.93;3.03;;;18.10;90.70;;;;;;4972919;28;20246;-70
2022/08/13 05:49:23;;;;;;;5.83;3.37;;;18.10;92.60;;;;;;4974338;28;20640;-69
2022/08/13 05:51:52;;;;;;;7.30;3.20;;;18.20;92.50;;;;;;4973619;28;20749;-70
2022/08/13 05:54:19;;;;;;;3.87;2.77;;;18.30;92.70;;;;;;4974006;28;20208;-68
2022/08/13 05:56:46;;;;;;;3.50;2.80;;;18.40;93.20;;;;;;4973253;28;20228;-68
2022/08/13 06:04:37;;;;;;;4.57;2.80;;;18.70;88.80;;;;;;4973345;28;20207;-68
2022/08/13 06:07:06;;;;;;;5.63;3.07;;;18.80;87.30;;;;;;4973029;28;20219;-68
2022/08/13 06:09:33;;;;;;;4.70;3.07;;;18.80;89.20;;;;;;4973338;28;20204;-68
2022/08/13 06:12:00;;;;;;;5.50;2.90;;;18.90;89.00;;;;;;4973340;28;20231;-68
2022/08/13 06:14:33;;;;;;;3.53;2.60;;;19.00;90.00;;;;;;4973507;28;20211;-68
2022/08/13 06:17:00;;;;;;;4.40;2.63;;;19.10;88.60;;;;;;4973104;28;20204;-67
2022/08/13 06:19:29;;;;;;;8.33;3.23;;;19.20;89.20;;;;;;4973248;28;20212;-68
2022/08/13 06:22:01;;;;;;;5.93;2.97;;;19.30;89.10;;;;;;4973093;28;20228;-68
2022/08/13 06:24:29;;;;;;;2.90;2.57;;;19.40;90.80;;;;;;4973494;28;20230;-69
2022/08/13 06:26:59;;;;;;;3.83;2.83;;;19.50;87.80;;;;;;4972920;28;20751;-68
2022/08/13 06:29:27;;;;;;;3.70;2.70;;;19.60;88.50;;;;;;4973104;28;20314;-65
2022/08/13 06:31:56;;;;;;;4.10;2.53;;;19.70;87.10;;;;;;4973206;28;20240;-66
2022/08/13 06:34:23;;;;;;;4.63;2.53;;;19.80;87.40;;;;;;4972986;28;20212;-67
2022/08/13 06:36:51;;;;;;;8.77;3.07;;;19.90;88.10;;;;;;4972620;28;20600;-67
2022/08/13 06:39:19;;;;;;;6.40;2.90;;;20.00;86.70;;;;;;4972987;28;20236;-66
2022/08/13 06:41:48;;;;;;;3.80;2.77;;;20.10;88.00;;;;;;4973121;28;20228;-67
2022/08/13 06:44:15;;;;;;;6.43;2.70;;;20.20;88.50;;;;;;4972849;28;20216;-67
2022/08/13 06:46:42;;;;;;;9.27;2.80;;;20.20;90.10;;;;;;4972827;28;20200;-68
2022/08/13 06:49:09;;;;;;;3.70;2.50;;;20.40;91.20;;;;;;4973081;28;20219;-67
2022/08/13 06:51:37;;;;;;;6.40;2.93;;;20.40;86.20;;;;;;4972622;28;20773;-67
2022/08/13 06:54:08;;;;;;;4.83;2.77;;;20.50;86.80;;;;;;4973130;28;20596;-68
2022/08/13 06:56:35;;;;;;;4.37;2.57;;;20.60;87.70;;;;;;4972475;28;20231;-67
2022/08/13 06:59:05;;;;;;;3.13;2.43;;;20.70;91.60;;;;;;4976030;28;20218;-66
2022/08/13 07:01:31;;;;;;;3.77;2.60;;;20.70;91.00;;;;;;4976529;28;20228;-67
2022/08/13 07:03:58;;;;;;;3.80;2.57;;;20.80;91.50;;;;;;4976704;28;20635;-66
2022/08/13 07:06:27;;;;;;;5.60;2.40;;;20.90;91.10;;;;;;4976368;28;20200;-68
2022/08/13 07:08:56;;;;;;;5.07;2.63;;;21.00;91.80;;;;;;4976701;28;20216;-68
2022/08/13 07:11:24;;;;;;;6.03;3.13;;;21.20;93.10;;;;;;4976472;28;20645;-68
2022/08/13 07:13:53;;;;;;;3.97;2.40;;;21.20;93.90;;;;;;4976539;28;20211;-68
2022/08/13 07:16:23;;;;;;;4.10;2.60;;;21.30;92.10;;;;;;4975900;28;20224;-68
2022/08/13 07:18:51;;;;;;;4.37;2.57;;;21.50;91.50;;;;;;4976308;28;20679;-68
2022/08/13 07:21:19;;;;;;;3.53;2.53;;;21.60;92.50;;;;;;4976175;28;20216;-68
2022/08/13 07:23:48;;;;;;;8.20;4.47;;;21.60;94.40;;;;;;4976239;28;20295;-68
2022/08/13 07:26:16;;;;;;;5.13;2.57;;;21.70;95.10;;;;;;4975986;28;20259;-67
2022/08/13 07:28:45;;;;;;;5.10;2.50;;;21.80;93.60;;;;;;4975954;28;20240;-67
2022/08/13 07:31:12;;;;;;;4.17;2.30;;;21.90;93.80;;;;;;4976225;28;20216;-67
2022/08/13 07:33:43;;;;;;;2.97;2.00;;;22.10;93.90;;;;;;4976040;28;20212;-67
2022/08/13 07:36:12;;;;;;;3.97;2.30;;;22.30;94.20;;;;;;4975974;28;20252;-67
2022/08/13 07:38:40;;;;;;;2.40;2.03;;;22.50;94.40;;;;;;4975938;28;20240;-69
2022/08/13 07:41:07;;;;;;;3.57;2.83;;;22.60;93.50;;;;;;4975852;28;20300;-68
2022/08/13 07:43:39;;;;;;;2.90;2.23;;;22.80;94.40;;;;;;4975897;28;20267;-68
2022/08/13 07:46:10;;;;;;;3.03;2.27;;;23.00;95.50;;;;;;4975786;28;20291;-65
2022/08/13 07:48:38;;;;;;;2.57;2.27;;;23.20;95.80;;;;;;4975959;28;20215;-65
2022/08/13 07:51:12;;;;;;;5.83;2.37;;;23.50;96.70;;;;;;4975807;28;20220;-65
2022/08/13 07:53:41;;;;;;;2.77;2.10;;;23.70;98.00;;;;;;4975585;28;20212;-65
2022/08/13 07:56:08;;;;;;;2.80;1.90;;;23.90;99.90;;;;;;4975592;28;20282;-65
2022/08/13 07:58:36;;;;;;;4.07;2.00;;;24.10;99.90;;;;;;4975729;28;20208;-65
2022/08/13 08:01:06;;;;;;;2.73;1.80;;;24.30;99.90;;;;;;4975646;28;20219;-65
2022/08/13 08:03:41;;;;;;;3.63;2.23;;;24.40;99.90;;;;;;4975663;28;20248;-63
2022/08/13 08:06:18;;;;;;;2.60;1.73;;;24.50;99.20;;;;;;4975135;28;20215;-65
2022/08/13 08:08:45;;;;;;;3.57;2.20;;;24.70;98.30;;;;;;4975415;28;20222;-65
2022/08/13 08:12:30;;;;;;;4.30;1.87;;;24.80;99.90;;;;;;4975023;28;20208;-63
2022/08/13 08:14:00;;;;;;;4.50;1.87;;;25.00;99.90;;;;;;4975262;28;20212;-65
2022/08/13 08:16:30;;;;;;;2.30;1.80;;;25.10;99.90;;;;;;4974945;28;20221;-65
2022/08/13 08:18:59;;;;;;;3.10;2.50;;;25.20;99.90;;;;;;4975588;28;20208;-65
2022/08/13 08:21:28;;;;;;;3.07;2.27;;;25.40;99.90;;;;;;4975443;28;20320;-65
2022/08/13 08:23:58;;;;;;;4.83;1.90;;;25.50;99.90;;;;;;4975164;28;20676;-65
2022/08/13 08:26:26;;;;;;;3.07;1.90;;;25.60;99.90;;;;;;4974860;28;20205;-62
2022/08/13 08:28:54;;;;;;;2.63;2.10;;;25.70;99.90;;;;;;4975079;28;20208;-65
2022/08/13 08:31:21;;;;;;;2.03;1.83;;;25.90;99.90;;;;;;4974852;28;20263;-65
2022/08/13 08:33:48;;;;;;;2.50;2.30;;;26.10;99.90;;;;;;4975097;28;20695;-65
2022/08/13 08:36:14;;;;;;;2.73;1.80;;;26.20;99.90;;;;;;4974452;28;20723;-65
2022/08/13 08:44:24;;;;;;;3.40;1.80;;;26.30;99.90;;;;;;4974836;28;20198;-65
2022/08/13 08:46:52;;;;;;;4.57;1.73;;;26.40;99.90;;;;;;4974625;28;20207;-65
2022/08/13 08:49:21;;;;;;;2.13;1.60;;;26.50;99.90;;;;;;4974775;28;20215;-65
2022/08/13 08:51:50;;;;;;;2.73;1.93;;;26.70;99.90;;;;;;4974550;28;20722;-65
2022/08/13 08:54:19;;;;;;;3.10;2.10;;;26.70;99.90;;;;;;4974601;28;20220;-65
2022/08/13 08:56:46;;;;;;;2.83;1.70;;;26.80;99.90;;;;;;4974373;28;20228;-65
2022/08/13 08:59:13;;;;;;;4.13;1.57;;;26.90;99.90;;;;;;4974715;28;20209;-65
2022/08/13 09:01:40;;;;;;;2.30;2.00;;;27.10;99.90;;;;;;4974666;28;20607;-65
2022/08/13 09:04:08;;;;;;;2.80;1.67;;;27.20;99.90;;;;;;4974561;28;20208;-65
2022/08/13 09:06:36;;;;;;;3.57;1.90;;;27.20;99.90;;;;;;4974159;28;20236;-66
2022/08/13 09:09:06;;;;;;;3.10;1.83;;;27.40;99.90;;;;;;4974605;28;20637;-65
2022/08/13 09:11:37;;;;;;;2.00;1.80;;;27.50;99.90;;;;;;4974478;28;20267;-65
2022/08/13 09:14:08;;;;;;;2.50;1.47;;;27.60;99.90;;;;;;4974392;28;20204;-65
2022/08/13 09:16:37;;;;;;;2.43;1.77;;;27.70;99.90;;;;;;4974102;28;20232;-65
2022/08/13 09:19:05;;;;;;;4.87;1.87;;;27.80;99.90;;;;;;4974104;28;20593;-65
2022/08/13 09:21:32;;;;;;;1.80;1.60;;;27.80;99.90;;;;;;4974269;28;20232;-65
2022/08/13 09:24:01;;;;;;;1.83;1.50;;;27.90;99.90;;;;;;4974318;28;20208;-65
2022/08/13 09:26:28;;;;;;;3.07;1.80;;;28.00;99.90;;;;;;4973882;28;20220;-65
2022/08/13 09:28:57;;;;;;;2.33;2.00;;;28.00;99.90;;;;;;4974028;28;20647;-65
2022/08/13 09:31:25;;;;;;;2.67;1.90;;;28.00;99.90;;;;;;4973795;28;20730;-65
2022/08/13 09:33:53;;;;;;;4.63;1.93;;;28.10;99.90;;;;;;4973857;28;20663;-65
2022/08/13 09:36:24;;;;;;;6.13;1.80;;;28.10;99.90;;;;;;4973525;28;20654;-65
2022/08/13 09:38:52;;;;;;;1.70;1.40;;;28.20;99.90;;;;;;4974026;28;20230;-65
2022/08/13 09:41:25;;;;;;;1.97;1.63;;;27.90;99.90;;;;;;4965432;28;20209;-65
2022/08/13 09:43:53;;;;;;;3.10;1.70;;;27.80;99.90;;;;;;4971101;28;20212;-65
2022/08/13 09:46:23;;;;;;;3.57;2.10;;;27.90;99.90;;;;;;4972459;28;20702;-68
2022/08/13 09:48:51;;;;;;;1.87;1.50;;;28.00;99.90;;;;;;4973598;28;20603;-68
2022/08/13 09:51:18;;;;;;;1.80;1.70;;;28.10;99.90;;;;;;4973094;28;20291;-67
2022/08/13 09:53:46;;;;;;;2.33;1.70;;;28.20;99.90;;;;;;4973158;28;20216;-67
2022/08/13 09:56:17;;;;;;;1.70;1.60;;;28.20;99.90;;;;;;4972703;28;20711;-67
2022/08/13 09:58:46;;;;;;;3.87;1.50;;;28.10;99.90;;;;;;4972864;28;20208;-66
2022/08/13 10:01:13;;;;;;;2.37;1.40;;;28.20;99.90;;;;;;4973067;28;20294;-67
2022/08/13 10:03:42;;;;;;;1.87;1.60;;;28.40;99.90;;;;;;4972663;28;20699;-66
2022/08/13 10:06:10;;;;;;;2.23;1.50;;;28.40;99.90;;;;;;4972818;28;20291;-66
2022/08/13 10:08:37;;;;;;;2.83;1.80;;;28.40;99.90;;;;;;4972907;28;20212;-66
2022/08/13 10:11:05;;;;;;;5.20;1.43;;;28.30;99.90;;;;;;4972788;28;20295;-66
2022/08/13 10:13:32;;;;;;;3.10;1.50;;;28.40;99.90;;;;;;4972977;28;20565;-68
2022/08/13 10:15:59;;;;;;;4.03;1.83;;;28.30;97.80;;;;;;4972833;28;20641;-67
2022/08/13 10:18:27;;;;;;;1.80;1.50;;;28.20;99.90;;;;;;4972872;28;20683;-67
2022/08/13 10:20:55;;;;;;;2.50;1.67;;;28.30;99.90;;;;;;4972890;28;20259;-67
2022/08/13 10:23:22;;;;;;;3.00;1.60;;;28.50;99.90;;;;;;4972243;28;20859;-67
2022/08/13 10:25:52;;;;;;;1.57;1.47;;;28.70;99.90;;;;;;4972477;28;20204;-66
2022/08/13 10:28:20;;;;;;;2.70;1.77;;;28.80;99.90;;;;;;4972505;28;20212;-67
2022/08/13 10:30:47;;;;;;;1.50;1.40;;;28.90;99.90;;;;;;4972516;28;20216;-67
2022/08/13 10:33:15;;;;;;;2.10;1.63;;;28.90;99.90;;;;;;4971693;28;20777;-67
2022/08/13 10:35:44;;;;;;;2.23;1.70;;;29.00;99.90;;;;;;4972762;28;20212;-67
2022/08/13 10:38:17;;;;;;;2.23;1.70;;;29.00;99.90;;;;;;4972524;28;20282;-67
2022/08/13 10:40:44;;;;;;;3.20;1.80;;;29.20;99.90;;;;;;4972651;28;20252;-67
2022/08/13 10:43:11;;;;;;;1.90;1.80;;;29.20;99.90;;;;;;4971571;28;20220;-66
2022/08/13 10:45:40;;;;;;;2.70;1.83;;;29.40;99.90;;;;;;4989982;28;20230;-65
2022/08/13 10:48:11;;;;;;;3.27;1.37;;;29.30;99.90;;;;;;4991793;28;20207;-65
2022/08/13 10:50:39;;;;;;;1.67;1.20;;;29.10;97.00;;;;;;4992564;28;20231;-66
2022/08/13 10:53:06;;;;;;;1.57;1.23;;;29.10;99.90;;;;;;4991534;28;20240;-65
2022/08/13 10:55:35;;;;;;;2.30;1.20;;;29.30;99.90;;;;;;4991930;28;20623;-65
2022/08/13 10:58:03;;;;;;;2.50;1.20;;;29.40;97.90;;;;;;4991339;28;20274;-65
2022/08/13 11:00:31;;;;;;;2.03;1.40;;;29.50;98.50;;;;;;4992053;28;20203;-65
2022/08/13 11:02:57;;;;;;;2.00;1.50;;;29.40;98.60;;;;;;4991255;28;20274;-65
2022/08/13 11:05:25;;;;;;;1.30;1.20;;;29.40;96.50;;;;;;4991291;28;20211;-65
2022/08/13 11:07:53;;;;;;;3.10;1.40;;;29.40;99.50;;;;;;4991477;28;20200;-65
2022/08/13 11:10:20;;;;;;;2.90;1.37;;;29.50;99.90;;;;;;4991690;28;20726;-65
2022/08/13 11:12:51;;;;;;;2.60;1.43;;;29.50;99.90;;;;;;4991448;28;20227;-65
2022/08/13 11:15:20;;;;;;;1.40;1.20;;;29.60;99.90;;;;;;4991729;28;20220;-65
2022/08/13 11:17:48;;;;;;;3.10;1.33;;;29.60;94.10;;;;;;4991215;28;20258;-65
2022/08/13 11:20:18;;;;;;;2.40;1.40;;;29.70;99.80;;;;;;4991559;28;20234;-65
2022/08/13 11:22:45;;;;;;;1.50;1.37;;;29.70;99.90;;;;;;4991247;28;20615;-65
2022/08/13 11:25:12;;;;;;;3.20;1.30;;;29.70;99.30;;;;;;4991200;28;20203;-65
2022/08/13 11:27:39;;;;;;;2.40;1.47;;;29.70;99.90;;;;;;4991150;28;20310;-65
2022/08/13 11:30:08;;;;;;;1.93;1.50;;;29.70;99.90;;;;;;4991009;28;20242;-65
2022/08/13 11:32:35;;;;;;;30.53;20.30;;;29.80;96.20;;;;;;4990485;28;20298;-65
2022/08/13 11:35:01;;;;;;;6.77;3.50;;;29.60;92.10;;;;;;4991192;28;20208;-65
2022/08/13 11:37:28;;;;;;;1.90;1.70;;;29.70;90.30;;;;;;4991180;28;20282;-65
2022/08/13 11:39:55;;;;;;;5.53;1.30;;;29.70;99.90;;;;;;4991226;28;20215;-65
2022/08/13 11:42:21;;;;;;;2.30;1.40;;;29.80;99.90;;;;;;4991062;28;20224;-65
2022/08/13 11:44:48;;;;;;;2.17;1.43;;;29.80;96.40;;;;;;4991275;28;20211;-66
2022/08/13 11:47:17;;;;;;;1.30;1.20;;;29.90;96.50;;;;;;4972974;28;20294;-66
2022/08/13 11:49:44;;;;;;;1.47;1.30;;;29.90;95.50;;;;;;4970088;28;20680;-65
2022/08/13 11:52:11;;;;;;;2.23;1.30;;;30.10;99.90;;;;;;4975131;28;20260;-65
2022/08/13 11:54:37;;;;;;;1.60;1.40;;;30.10;94.40;;;;;;4974627;28;20212;-65
2022/08/13 11:57:06;;;;;;;1.57;1.47;;;30.10;96.40;;;;;;4974802;28;20224;-65
2022/08/13 11:59:32;;;;;;;1.80;1.30;;;30.20;95.00;;;;;;4974946;28;20212;-65
2022/08/13 12:01:59;;;;;;;1.73;1.40;;;30.10;93.10;;;;;;4975121;28;20743;-65
2022/08/13 12:04:28;;;;;;;1.43;1.33;;;29.90;90.50;;;;;;4974937;28;20212;-65
2022/08/13 12:06:55;;;;;;;1.77;1.67;;;29.90;92.30;;;;;;4974792;28;20204;-65
2022/08/13 12:09:22;;;;;;;2.23;1.80;;;30.00;96.00;;;;;;4974953;28;20205;-65
2022/08/13 12:11:49;;;;;;;2.07;1.50;;;30.10;99.90;;;;;;4974556;28;20719;-66
2022/08/13 12:14:15;;;;;;;2.70;1.83;;;30.20;97.10;;;;;;4974537;28;20355;-65
2022/08/13 12:16:42;;;;;;;1.67;1.58;;;30.30;99.90;;;;;;4974589;28;20275;-65
2022/08/13 12:19:09;;;;;;;3.00;1.87;;;30.40;98.70;;;;;;4974882;28;20632;-65
2022/08/13 12:21:37;;;;;;;2.72;2.00;;;30.40;99.90;;;;;;4974479;28;20283;-65
2022/08/13 12:24:05;;;;;;;2.33;1.50;;;30.40;99.90;;;;;;4974541;28;20679;-65
2022/08/13 12:26:32;;;;;;;1.60;1.50;;;30.40;99.90;;;;;;4974103;28;20208;-65
2022/08/13 12:28:58;;;;;;;2.87;2.00;;;30.50;99.90;;;;;;4974901;28;20212;-65
2022/08/13 12:31:25;;;;;;;9.77;6.73;;;30.60;99.90;;;;;;4973565;28;20287;-66
2022/08/13 12:33:52;;;;;;;8.20;6.20;;;30.50;99.90;;;;;;4974434;28;20267;-67
2022/08/13 12:36:19;;;;;;;2.07;1.87;;;30.30;99.90;;;;;;4974397;28;20212;-67
2022/08/13 12:38:47;;;;;;;2.30;1.70;;;30.30;97.80;;;;;;4974412;28;20229;-68
2022/08/13 12:41:14;;;;;;;3.50;1.93;;;30.30;94.90;;;;;;4974343;28;20208;-67
2022/08/13 12:43:41;;;;;;;3.87;1.80;;;30.40;97.00;;;;;;4974112;28;20211;-67
2022/08/13 12:46:08;;;;;;;3.13;1.60;;;30.50;96.60;;;;;;4974126;28;20624;-67
2022/08/13 12:48:34;;;;;;;2.05;1.65;;;30.70;99.90;;;;;;4974414;28;20274;-68
2022/08/13 12:51:01;;;;;;;2.13;1.87;;;30.80;99.90;;;;;;4974468;28;20216;-67
2022/08/13 12:53:28;;;;;;;2.40;1.67;;;30.80;96.30;;;;;;4973990;28;20793;-69
2022/08/13 12:55:56;;;;;;;1.80;1.70;;;30.70;99.90;;;;;;4973178;28;20212;-69
2022/08/13 12:58:24;;;;;;;3.77;1.80;;;30.60;95.90;;;;;;4974121;28;20232;-70
2022/08/13 13:00:54;;;;;;;1.75;1.65;;;30.60;97.80;;;;;;4974106;28;20737;-71
2022/08/13 13:03:22;;;;;;;1.93;1.83;;;30.70;98.30;;;;;;4973899;28;20291;-70
2022/08/13 13:05:51;;;;;;;3.20;2.00;;;30.80;95.70;;;;;;4973640;28;20208;-69
2022/08/13 13:08:20;;;;;;;3.20;1.83;;;30.40;96.00;;;;;;4973862;28;20201;-71